EHEHLEAL

Guest
Details From EHEH - Eindhoven
To LEAL - Alicante
Flight Number -
Tags Generated
Created
Modified
Stats Distance 829 nm / 1,535 km
Max Altitude 0 ft / 0 m
Waypoints 5
Social Downloads 5
Likes 0
Share VATSIM

Download

Looking for another format? Having issues loading an existing format? Contact us
Advertisement - Login to hide

Notes

Generated

Route

EHEH AV MOPAS R2305 LEAL

ID Type Via Altitude Latitude Longitude Leg Dist Tot Dist Heading (true) Name
O EHEH APT - 0 ft / 0 m 51.43909˚ 5.36214˚ - 0 nm - -
AV NDB - 0 ft / 0 m 46.88167˚ 2.92889˚ 289 nm 289 nm 200° / 198° Avord NDB
MOPAS FIX - 0 ft / 0 m 42.43538˚ 1.03436˚ 279 nm 568 nm 198° / 196° -
R2305 FIX - 0 ft / 0 m 38.28452˚ -0.57500˚ 259 nm 828 nm 197° / 196° -
O LEAL APT - 0 ft / 0 m 38.28452˚ -0.57500˚ 0 nm 828 nm 270° / 270° -

Altitude Profile

Advertisement - Login to hide

Weather


0- 5 10 15 20 25 30 35+ Temperature / ° C

Clouds and Precipitation
Forecast for 2018-05-25 00:00 UTC. Updated 3 hours ago

Ground ~20,000 ft ~40,000 ft Winds

EHEH

Details ICAO EHEH (EIN)
Name Eindhoven
Region Netherlands
Timezone Europe/Amsterdam (UTC+2.0)
Stats Elevation 74 ft / 23 m (AMSL)
Location 51.450133° 5.374513°
Runways 1
Magnetic Variation 1.433° E

METAR

EHEH 250155Z AUTO 10004KT 070V130 1700 BR NSC 16/15 Q1016 YLO

Decode

TAF

TAF AMD EHEH 250041Z 2500/2606 10003KT 3000 BR BKN010 BECMG 2500/2503 1500 BR NSC PROB40 2500/2506 0200 FG OVC000 BECMG 2506/2508 9999 NSW NSC PROB30 TEMPO 2514/2519 VRB15G25KT 2000 +SHRA TSRAGR SCT012 BKN040CB BECMG 2602/2605 3500 BR

Decode

Departure Runways

ID Width Length Bearing (true) Bearing (mag) Surface Threshold Offset Overrun Length
03 148 ft / 45 m 9,832 ft / 2,997 m 34.92° 33.49° Asphalt 821 ft / 250 m 0 ft / 0 m
21 148 ft / 45 m 9,832 ft / 2,997 m 214.94° 213.51° Asphalt 821 ft / 250 m 0 ft / 0 m

LEAL

Details ICAO LEAL (ALC)
Name Alicante
Region Spain
Timezone Europe/Madrid (UTC+2.0)
Stats Elevation 141 ft / 43 m (AMSL)
Location 38.282169° -0.558157°
Runways 1
Magnetic Variation 0.232° E

METAR

LEAL 250200Z 07021G32KT 9999 FEW018 22/14 Q1008 NOSIG

Decode

TAF

TAF AMD LEAL 250044Z 2500/2524 33005KT 9999 FEW030 TX29/2512Z TN17/2506Z TEMPO 2501/2504 05010KT PROB40 TEMPO 2508/2518 25009KT BECMG 2511/2513 17017KT BECMG 2518/2520 01008KT TEMPO 2520/2524 VRB04KT

Decode

Destination Runways

ID Width Length Bearing (true) Bearing (mag) Surface Threshold Offset Overrun Length
10 148 ft / 45 m 9,799 ft / 2,987 m 100.07° 99.84° Asphalt 0 ft / 0 m 164 ft / 50 m
28 148 ft / 45 m 9,799 ft / 2,987 m 280.09° 279.86° Asphalt 0 ft / 0 m 197 ft / 60 m

Approach Navaids

Runway Type Ident Frequency Range Bearing (true) Bearing (mag) Slope Elevation
10 Localiser IAT 110.30 MHz 18 nm / 33 km 100.09° 99.86° - 29 ft / 9 m (AMSL)
10 Glidescope IAT 110.30 MHz 10 nm / 19 km 100.09° 99.86° 3.00° 129 ft / 39 m (AMSL)
10 DME IAT 110.30 MHz 18 nm / 33 km - - - 129 ft / 39 m (AMSL)

Popular Alternatives